Kongiganak, AK

5:45 PM AKDT on September 02, 2014 (GMT -0800)
Bethel | Change Station
CLOSE
Current Station
Airport
Location: Bethel,
Elevation: 148 ft
Nearby Weather Stations

Elev 148 ft 60.79 °N, 161.83 °W | Updated 12 minutes ago

Overcast
Overcast
52 °F
Feels Like 52 °F
N
6
Wind Variable Wind from NNE

Today
High -- | Low -- °F
--% Chance of Precip.
Yesterday
High -- | Low -- °F
Precip. -- in
7:42 AM 9:48 PM
First Quarter, 57% visible
Pressure 30.03 in
Visibility 2.0 miles
Clouds Overcast 1000 ft
Dew Point 48 °F
Humidity 88%
Rainfall 0.07 in
Snow Depth Not available.
UV 1 out of 12
Pollen Not available.
Air Quality Not available.
Flu Activity Not available.
SPECI PABE 030133Z 02005KT 2SM BR OVC010 11/09 A3003 RMK AO2 CIG 009V014

More Conditions Fewer Conditions

Pressure 30.03 in
Visibility 2.0 miles
Clouds Overcast 1000 ft
Dew Point 48 °F
Humidity 88%
Rainfall 0.07 in
Snow Depth Not available.
UV 1 out of 12
Pollen Not available.
Air Quality Not available.
Flu Activity Not available.
SPECI PABE 030133Z 02005KT 2SM BR OVC010 11/09 A3003 RMK AO2 CIG 009V014

More Conditions Fewer Conditions

10-Day Weather Forecast

Almanac

Astronomy

Sep. 02, 2014 Rise Set
Actual Time 7:42 AM AKDT 9:48 PM AKDT
Civil Twilight 6:56 AM AKDT 10:34 PM AKDT
Nautical Twilight 5:56 AM AKDT 11:33 PM AKDT
Astronomical Twilight 4:38 AM AKDT 12:49 AM AKDT
Moon 5:37 PM AKDT (9/2) 12:08 AM AKDT (9/2)
Length of Visible Light 15h 37m
Length of Day
14h 05m
Tomorrow will be 5m 33s shorter.
First Quarter, 57% of the Moon is Illuminated
Today
First Quarter
Sep 8
Full
Sep 15
Last Quarter
Sep 24
New
Oct 1
First Quarter

Today's Extremes

State Highs State Lows

Community

WunderPhotos

Upload Photos

1,749,829 photos uploaded!

Nearby

Snow Depth

Station Depth Elevation
Rocky Point 4 in 500 ft
Mcneil Canyon 1 in 1320 ft
MF Bradley River 2 in 2300 ft
Point Mackenzie 1 in 200 ft
Susitna Valley High 2 in 375 ft

Earthquake Activity

City Distance Mag. Time & Date
No recent earthquake activity has been reported nearby.
Minimum magnitude displayed is 2.5.

Coastal Water Temperatures

Place Temperature
No Stations Reporting

Nearby Weather Stations